South Saint Paul, MN

4:44 PM CDT on June 03, 2015 (GMT -0500)
Minneapolis-Saint Paul International | | Change Station
CLOSE
Current Station
Airport
Location: Minneapolis,
Elevation: 837 ft
Nearby Weather Stations

Elev 837 ft 44.89 °N, 93.23 °W | Updated 43 minutes ago

Rain
Rain
65 °F
Feels Like 65 °F
N
9
Wind Variable Wind from ESE

Today
High -- | Low -- °F
--% Chance of Precip.
Yesterday
High -- | Low -- °F
Precip. -- in
5:28 AM 8:52 PM
Full, 98% visible
Pressure 29.85 in
Visibility 5.0 miles
Clouds Few 900 ft
Mostly Cloudy 2400 ft
Overcast 3800 ft
Dew Point 62 °F
Humidity 90%
Rainfall 0.50 in
Snow Depth Not available.
UV 2 out of 12
Pollen 1.00 out of 12
Air Quality Not available.
Flu Activity Sporadic
SPECI KMSP 032101Z 11008KT 5SM -RA BR FEW009 BKN024 OVC038 18/17 A2985 RMK AO2 RAB2055 PRESENT WX VCSH P0000 T01830167 $

More Conditions Fewer Conditions

Pressure 29.85 in
Visibility 5.0 miles
Clouds Few 900 ft
Mostly Cloudy 2400 ft
Overcast 3800 ft
Dew Point 62 °F
Humidity 90%
Rainfall 0.50 in
Snow Depth Not available.
UV 2 out of 12
Pollen 1.00 out of 12
Air Quality Not available.
Flu Activity Sporadic
SPECI KMSP 032101Z 11008KT 5SM -RA BR FEW009 BKN024 OVC038 18/17 A2985 RMK AO2 RAB2055 PRESENT WX VCSH P0000 T01830167 $

More Conditions Fewer Conditions

10-Day Weather Forecast

×

Almanac

Astronomy

Jun. 03, 2015 Rise Set
Actual Time
Civil Twilight
Nautical Twilight
Astronomical Twilight
Moon
Length of Visible Light
Length of Day
Tomorrow will be .
, % of the Moon is Illuminated

Today's Extremes

State Highs State Lows

Community

WunderPhotos

Upload Photos

1,826,291 photos uploaded!

WunderBlogs® & News

Nearby

Air Quality

  Air Quality AQ Index Pollutant
Not available.

Snow Depth

Station Depth Elevation

Earthquake Activity

City Distance Mag. Time & Date
Minimum magnitude displayed is 2.5.

Coastal Water Temperatures

Place Temperature

Stations

Nearby Weather Stations

Station Location Temp. Windchill Dew Point Humidity Wind Precip. Elev Updated Type